createdAt,value
2022-12-29T00:00:08.693Z,50.29
2022-12-29T00:03:20.923Z,49.62
2022-12-29T00:06:27.950Z,49.77
2022-12-29T00:09:33.608Z,51.41
2022-12-29T00:12:55.634Z,50.08
2022-12-29T00:16:04.099Z,51.12
2022-12-29T00:19:30.449Z,50.49
2022-12-29T00:22:51.661Z,51.45
2022-12-29T00:26:13.588Z,50.55
2022-12-29T00:29:35.396Z,50.27
2022-12-29T00:33:00.023Z,50.33
2022-12-29T00:36:11.327Z,50.96
2022-12-29T00:39:38.487Z,50.22
2022-12-29T00:42:59.807Z,51.68
2022-12-29T00:46:06.329Z,51.87
2022-12-29T00:49:35.922Z,51.46
2022-12-29T00:52:42.141Z,52.07
2022-12-29T00:55:48.869Z,51.09
2022-12-29T00:58:55.158Z,50.45
2022-12-29T01:02:17.690Z,50.85
2022-12-29T01:05:29.491Z,50.95
2022-12-29T01:08:35.583Z,50.48
2022-12-29T01:11:40.852Z,51.60
2022-12-29T01:14:46.811Z,51.44
2022-12-29T01:17:53.119Z,51.75
2022-12-29T01:21:08.689Z,51.65
2022-12-29T01:24:17.887Z,51.37
2022-12-29T01:27:23.574Z,51.75
2022-12-29T01:30:29.989Z,51.65
2022-12-29T01:33:35.394Z,51.96
2022-12-29T01:36:44.457Z,52.01
2022-12-29T01:39:50.906Z,51.51
2022-12-29T01:42:57.128Z,51.82
2022-12-29T01:46:02.745Z,51.23
2022-12-29T01:49:21.122Z,52.19
2022-12-29T01:52:36.892Z,52.40
2022-12-29T01:55:53.362Z,51.31
2022-12-29T01:59:09.893Z,51.76
2022-12-29T02:02:18.051Z,51.65
2022-12-29T02:05:36.159Z,52.55
2022-12-29T02:08:47.205Z,52.33
2022-12-29T02:11:52.911Z,51.92
2022-12-29T02:15:06.486Z,52.76
2022-12-29T02:18:33.238Z,52.01
2022-12-29T02:22:04.388Z,51.74
2022-12-29T02:25:59.958Z,52.34
2022-12-29T02:29:56.494Z,51.62
2022-12-29T02:33:25.423Z,52.65
2022-12-29T02:36:46.882Z,51.19
2022-12-29T02:40:06.488Z,52.38
2022-12-29T02:43:28.622Z,52.35
2022-12-29T02:46:47.183Z,52.19
2022-12-29T02:50:10.152Z,52.02
2022-12-29T02:53:44.057Z,53.10
2022-12-29T02:56:46.731Z,52.17
2022-12-29T03:00:00.914Z,51.97
2022-12-29T03:03:32.778Z,51.90
2022-12-29T03:07:00.430Z,51.90
2022-12-29T03:10:23.689Z,52.30
2022-12-29T03:13:59.643Z,51.41
2022-12-29T03:17:14.927Z,51.68
2022-12-29T03:20:30.393Z,51.56
2022-12-29T03:23:43.959Z,51.10
2022-12-29T03:26:55.451Z,52.43
2022-12-29T03:30:08.159Z,51.89
2022-12-29T03:33:21.073Z,51.75
2022-12-29T03:36:40.785Z,52.10
2022-12-29T03:39:51.195Z,51.65
2022-12-29T03:42:59.485Z,51.62
2022-12-29T03:46:08.061Z,51.88
2022-12-29T03:49:14.052Z,52.44
2022-12-29T03:52:20.554Z,52.49
2022-12-29T03:55:29.676Z,52.87
2022-12-29T03:58:36.824Z,52.86
2022-12-29T04:01:51.565Z,52.96
2022-12-29T04:04:58.660Z,52.71
2022-12-29T04:08:04.364Z,53.32
2022-12-29T04:11:13.348Z,53.91
2022-12-29T04:14:20.545Z,52.84
2022-12-29T04:17:27.061Z,53.06
2022-12-29T04:20:48.885Z,52.99
2022-12-29T04:23:55.859Z,53.81
2022-12-29T04:27:04.413Z,53.60
2022-12-29T04:30:58.282Z,54.45
2022-12-29T04:34:08.974Z,54.37
2022-12-29T04:37:15.273Z,54.55
2022-12-29T04:40:21.169Z,54.56
2022-12-29T04:43:30.814Z,54.29
2022-12-29T04:46:56.368Z,54.61
2022-12-29T04:50:30.805Z,53.75
2022-12-29T04:53:47.082Z,53.66
2022-12-29T04:56:53.332Z,54.99
2022-12-29T05:00:03.140Z,54.61
2022-12-29T05:03:09.811Z,54.56
2022-12-29T05:06:18.305Z,54.03
2022-12-29T05:09:25.889Z,54.98
2022-12-29T05:12:34.974Z,54.52
2022-12-29T05:15:44.877Z,53.43
2022-12-29T05:18:50.633Z,53.26
2022-12-29T05:21:57.182Z,53.98
2022-12-29T05:25:02.932Z,53.45
2022-12-29T05:28:10.244Z,54.15
2022-12-29T05:31:28.065Z,54.00
2022-12-29T05:34:34.436Z,53.79
2022-12-29T05:37:40.325Z,53.18
2022-12-29T05:40:47.910Z,53.71
2022-12-29T05:44:09.841Z,54.45
2022-12-29T05:47:34.041Z,53.47
2022-12-29T05:50:52.026Z,53.95
2022-12-29T05:54:04.246Z,54.11
2022-12-29T05:57:09.692Z,54.05
2022-12-29T06:00:19.401Z,53.38
2022-12-29T06:03:28.704Z,53.02
2022-12-29T06:06:35.507Z,53.62
2022-12-29T06:09:42.273Z,53.23
2022-12-29T06:12:50.210Z,53.48
2022-12-29T06:15:55.782Z,53.92
2022-12-29T06:19:08.267Z,52.86
2022-12-29T06:22:15.038Z,53.27
2022-12-29T06:25:22.915Z,53.21
2022-12-29T06:28:28.458Z,52.13
2022-12-29T06:31:34.883Z,52.08
2022-12-29T06:34:43.525Z,51.81
2022-12-29T06:37:49.773Z,51.62
2022-12-29T06:40:55.642Z,51.91
2022-12-29T06:44:17.366Z,52.79
2022-12-29T06:47:30.003Z,52.65
2022-12-29T06:50:39.556Z,52.35
2022-12-29T06:53:45.035Z,52.11
2022-12-29T06:56:51.854Z,51.73
2022-12-29T06:59:58.452Z,52.38
2022-12-29T07:03:05.109Z,52.38
2022-12-29T07:06:13.599Z,52.12
2022-12-29T07:09:20.710Z,51.99
2022-12-29T07:12:26.113Z,51.88
2022-12-29T07:15:32.699Z,52.27
2022-12-29T07:18:38.998Z,51.84
2022-12-29T07:21:48.082Z,53.74
2022-12-29T07:24:53.470Z,55.13
2022-12-29T07:27:59.809Z,54.71
2022-12-29T07:31:05.971Z,49.09
2022-12-29T07:34:13.010Z,51.10
2022-12-29T07:37:22.012Z,48.58
2022-12-29T07:40:29.183Z,48.70
2022-12-29T07:43:35.189Z,50.61
2022-12-29T07:47:01.947Z,54.76
2022-12-29T07:50:09.859Z,50.43
2022-12-29T07:53:19.499Z,52.54
2022-12-29T07:56:25.000Z,50.88
2022-12-29T07:59:31.568Z,48.27
2022-12-29T08:02:37.213Z,49.64
2022-12-29T08:05:43.769Z,48.72
2022-12-29T08:08:52.192Z,48.91
2022-12-29T08:11:59.304Z,50.14
2022-12-29T08:15:04.767Z,49.53
2022-12-29T08:18:11.234Z,49.78
2022-12-29T08:21:16.737Z,50.03
2022-12-29T08:24:26.512Z,50.38
2022-12-29T08:27:32.104Z,50.38
2022-12-29T08:30:40.354Z,50.68
2022-12-29T08:33:45.984Z,51.31
2022-12-29T08:36:55.288Z,51.26
2022-12-29T08:40:05.018Z,52.11
2022-12-29T08:43:13.646Z,52.18
2022-12-29T08:46:21.288Z,51.48
2022-12-29T08:49:27.641Z,52.11
2022-12-29T08:52:33.064Z,52.28
2022-12-29T08:55:42.217Z,54.37
2022-12-29T08:58:47.842Z,52.59
2022-12-29T09:01:54.201Z,54.16
2022-12-29T09:05:00.256Z,54.19
2022-12-29T09:08:06.778Z,50.88
2022-12-29T09:11:20.227Z,54.03
2022-12-29T09:14:26.702Z,49.26
2022-12-29T09:17:50.241Z,49.19
2022-12-29T09:21:01.832Z,48.38
2022-12-29T09:24:07.487Z,48.51
2022-12-29T09:27:16.878Z,48.53
2022-12-29T09:30:24.399Z,49.53
2022-12-29T09:33:31.021Z,49.70
2022-12-29T09:36:36.759Z,50.00
2022-12-29T09:39:44.785Z,50.33
2022-12-29T09:43:16.792Z,50.56
2022-12-29T09:46:30.826Z,50.47
2022-12-29T09:49:48.499Z,50.65
2022-12-29T09:53:09.018Z,50.65
2022-12-29T09:56:22.476Z,50.80
2022-12-29T09:59:44.516Z,50.69
2022-12-29T10:02:57.354Z,50.62
2022-12-29T10:06:15.828Z,50.61
2022-12-29T10:09:38.496Z,50.70
2022-12-29T10:13:10.724Z,50.58
2022-12-29T10:16:32.379Z,50.75
2022-12-29T10:20:11.479Z,50.70
2022-12-29T10:23:40.226Z,50.79
2022-12-29T10:26:50.943Z,51.05
2022-12-29T10:30:02.044Z,50.64
2022-12-29T10:33:21.898Z,50.81
2022-12-29T10:36:39.794Z,50.68
2022-12-29T10:39:55.374Z,51.87
2022-12-29T10:43:03.061Z,50.56
2022-12-29T10:46:16.878Z,50.39
2022-12-29T10:49:25.778Z,54.17
2022-12-29T10:52:37.251Z,56.21
2022-12-29T10:55:46.529Z,49.81
2022-12-29T10:58:55.523Z,48.17
2022-12-29T11:02:26.405Z,48.39
2022-12-29T11:05:44.534Z,48.32
2022-12-29T11:09:01.103Z,50.74
2022-12-29T11:12:25.527Z,49.74
2022-12-29T11:15:31.985Z,47.99
2022-12-29T11:18:41.674Z,46.48
2022-12-29T11:21:49.855Z,46.95
2022-12-29T11:24:59.143Z,48.26
2022-12-29T11:28:18.201Z,47.62
2022-12-29T11:31:26.554Z,48.48
2022-12-29T11:34:37.507Z,48.27
2022-12-29T11:37:46.618Z,48.42
2022-12-29T11:40:53.592Z,48.74
2022-12-29T11:44:05.083Z,48.29
2022-12-29T11:47:25.720Z,48.68
2022-12-29T11:50:37.973Z,48.67
2022-12-29T11:53:54.121Z,48.12
2022-12-29T11:57:12.884Z,48.72
2022-12-29T12:00:22.952Z,48.02
2022-12-29T12:03:36.208Z,48.89
2022-12-29T12:06:53.394Z,48.21
2022-12-29T12:10:08.809Z,47.83
2022-12-29T12:13:29.522Z,47.67
2022-12-29T12:16:45.694Z,47.52
2022-12-29T12:20:03.950Z,47.75
2022-12-29T12:23:30.039Z,47.38
2022-12-29T12:26:59.169Z,47.84
2022-12-29T12:30:13.652Z,46.97
2022-12-29T12:33:31.662Z,47.88
2022-12-29T12:37:08.153Z,47.92
2022-12-29T12:40:44.073Z,47.25
2022-12-29T12:44:04.477Z,48.67
2022-12-29T12:47:43.380Z,48.75
2022-12-29T12:51:08.371Z,49.90
2022-12-29T12:54:42.775Z,49.79
2022-12-29T12:58:05.719Z,48.63
2022-12-29T13:01:42.360Z,49.62
2022-12-29T13:05:28.226Z,47.76
2022-12-29T13:09:26.179Z,49.04
2022-12-29T13:12:46.850Z,48.44
2022-12-29T13:16:13.779Z,47.25
2022-12-29T13:19:39.520Z,49.37
2022-12-29T13:23:01.147Z,47.08
2022-12-29T13:26:24.251Z,47.03
2022-12-29T13:29:44.692Z,47.66
2022-12-29T13:33:14.949Z,52.60
2022-12-29T13:36:39.335Z,48.17
2022-12-29T13:39:55.660Z,47.02
2022-12-29T13:43:03.798Z,47.06
2022-12-29T13:46:21.218Z,47.70
2022-12-29T13:49:27.896Z,48.16
2022-12-29T13:52:50.061Z,47.81
2022-12-29T13:56:09.007Z,48.84
2022-12-29T13:59:31.993Z,49.14
2022-12-29T14:03:06.956Z,49.56
2022-12-29T14:06:30.015Z,49.70
2022-12-29T14:11:14.733Z,49.17
2022-12-29T14:14:30.511Z,49.14
2022-12-29T14:18:09.769Z,49.35
2022-12-29T18:05:34.998Z,53.98
2022-12-29T18:08:44.245Z,54.33
2022-12-29T18:11:49.682Z,54.34
2022-12-29T18:14:56.263Z,54.40
2022-12-29T18:18:06.665Z,54.69
2022-12-29T18:21:22.236Z,54.82
2022-12-29T18:24:28.594Z,54.86
2022-12-29T18:27:34.861Z,54.80
2022-12-29T18:30:41.332Z,54.85
2022-12-29T18:33:47.732Z,54.88
2022-12-29T18:36:56.017Z,54.88
2022-12-29T18:40:03.515Z,54.94
2022-12-29T18:43:09.343Z,55.34
2022-12-29T18:46:22.369Z,55.29
2022-12-29T18:49:29.299Z,55.32
2022-12-29T18:52:38.312Z,55.25
2022-12-29T18:55:43.695Z,55.24
2022-12-29T18:58:50.018Z,55.11
2022-12-29T19:01:56.199Z,55.16
2022-12-29T19:05:07.478Z,55.87
2022-12-29T19:08:17.704Z,55.11
2022-12-29T19:11:24.435Z,55.37
2022-12-29T19:14:29.878Z,54.88
2022-12-29T19:17:44.542Z,55.13
2022-12-29T19:20:57.235Z,55.22
2022-12-29T19:24:06.376Z,54.95
2022-12-29T19:27:20.166Z,54.96
2022-12-29T19:30:36.612Z,55.22
2022-12-29T19:33:42.439Z,55.74
2022-12-29T19:36:49.549Z,55.10
2022-12-29T19:39:57.843Z,55.13
2022-12-29T19:43:04.233Z,55.69
2022-12-29T19:46:11.969Z,55.92
2022-12-29T19:49:18.352Z,55.94
2022-12-29T19:52:23.901Z,55.45
2022-12-29T19:55:33.041Z,55.52
2022-12-29T19:58:46.670Z,56.08
2022-12-29T20:01:54.274Z,55.29
2022-12-29T20:05:00.671Z,55.72
2022-12-29T20:08:07.727Z,55.75
2022-12-29T20:11:19.466Z,55.20
2022-12-29T20:14:26.018Z,55.07
2022-12-29T20:18:02.631Z,55.20
2022-12-29T20:21:04.820Z,55.88
2022-12-29T20:24:10.599Z,55.08
2022-12-29T20:27:19.931Z,55.25
2022-12-29T20:30:25.520Z,54.73
2022-12-29T20:33:34.505Z,55.56
2022-12-29T20:36:44.842Z,54.99
2022-12-29T20:39:51.781Z,54.86
2022-12-29T20:43:00.244Z,55.72
2022-12-29T20:46:06.704Z,55.59
2022-12-29T20:49:12.224Z,55.55
2022-12-29T20:52:19.437Z,55.42
2022-12-29T20:55:24.833Z,55.60
2022-12-29T20:58:52.528Z,56.32
2022-12-29T21:02:01.742Z,55.84
2022-12-29T21:05:25.622Z,56.56
2022-12-29T21:08:33.258Z,55.88
2022-12-29T21:11:39.678Z,55.92
2022-12-29T21:14:47.961Z,56.41
2022-12-29T21:17:54.342Z,56.35
2022-12-29T21:21:00.556Z,56.31
2022-12-29T21:24:08.271Z,55.34
2022-12-29T21:27:13.684Z,56.23
2022-12-29T21:30:22.743Z,56.46
2022-12-29T21:33:29.013Z,56.60
2022-12-29T21:36:35.914Z,55.48
2022-12-29T21:39:41.480Z,55.63
2022-12-29T21:42:47.937Z,55.46
2022-12-29T21:45:56.186Z,56.43
2022-12-29T21:49:02.557Z,55.88
2022-12-29T21:52:08.530Z,56.08
2022-12-29T21:55:14.803Z,55.82
2022-12-29T21:58:33.114Z,55.69
2022-12-29T22:01:57.850Z,55.78
2022-12-29T22:05:19.083Z,55.96
2022-12-29T22:08:41.009Z,55.31
2022-12-29T22:12:02.042Z,55.58
2022-12-29T22:15:10.194Z,55.54
2022-12-29T22:18:18.314Z,55.87
2022-12-29T22:21:24.535Z,56.15
2022-12-29T22:24:29.932Z,56.30
2022-12-29T22:27:36.423Z,56.01
2022-12-29T22:30:41.932Z,56.35
2022-12-29T22:33:51.346Z,56.21
2022-12-29T22:36:56.838Z,56.32
2022-12-29T22:40:03.126Z,56.33
2022-12-29T22:43:13.099Z,56.57
2022-12-29T22:46:20.032Z,55.87
2022-12-29T22:49:28.426Z,56.09
2022-12-29T22:52:34.746Z,56.02
2022-12-29T22:55:40.188Z,55.95
2022-12-29T22:58:48.945Z,56.65
2022-12-29T23:01:54.661Z,56.15
2022-12-29T23:05:05.305Z,56.77
2022-12-29T23:08:11.330Z,57.03
2022-12-29T23:11:18.323Z,56.68
2022-12-29T23:14:23.739Z,57.61
2022-12-29T23:17:30.264Z,57.08
2022-12-29T23:20:38.903Z,56.76
2022-12-29T23:23:57.866Z,56.92
2022-12-29T23:27:03.328Z,56.65
2022-12-29T23:30:11.291Z,56.56
2022-12-29T23:33:16.684Z,56.60
2022-12-29T23:36:26.057Z,56.39
2022-12-29T23:39:31.492Z,56.80
2022-12-29T23:42:37.790Z,56.42
2022-12-29T23:45:48.943Z,56.38
2022-12-29T23:48:58.127Z,57.49
2022-12-29T23:52:06.362Z,57.45
2022-12-29T23:55:13.943Z,56.91
2022-12-29T23:58:19.342Z,57.30
